createdAt,value
2023-04-12T00:02:47.305Z,98842.11
2023-04-12T00:12:53.349Z,98840.38
2023-04-12T00:22:58.951Z,98842.81
2023-04-12T00:33:04.959Z,98843.87
2023-04-12T00:43:15.619Z,98840.29
2023-04-12T00:53:22.120Z,98847.42
2023-04-12T01:03:31.086Z,98852.73
2023-04-12T01:13:41.094Z,98840.90
2023-04-12T01:23:59.933Z,98839.60
2023-04-12T01:34:06.244Z,98837.05
2023-04-12T01:44:13.447Z,98834.98
2023-04-12T01:54:20.434Z,98818.61
2023-04-12T02:04:28.004Z,98811.62
2023-04-12T02:14:33.697Z,98811.91
2023-04-12T02:24:39.594Z,98808.96
2023-04-12T02:34:51.387Z,98806.53
2023-04-12T02:44:57.377Z,98808.52
2023-04-12T02:55:03.888Z,98817.43
2023-04-12T03:05:11.028Z,98814.42
2023-04-12T03:15:18.082Z,98814.12
2023-04-12T03:25:23.871Z,98811.92
2023-04-12T03:35:29.523Z,98812.06
2023-04-12T03:45:35.437Z,98808.14
2023-04-12T03:55:41.499Z,98810.83
2023-04-12T04:05:47.556Z,98815.93
2023-04-12T04:16:03.576Z,98807.89
2023-04-12T04:26:10.838Z,98807.48
2023-04-12T04:36:17.065Z,98815.91
2023-04-12T04:46:22.624Z,98823.39
2023-04-12T04:56:28.711Z,98830.98
2023-04-12T05:06:34.516Z,98830.73
2023-04-12T05:16:40.330Z,98834.03
2023-04-12T05:26:47.239Z,98840.19
2023-04-12T05:36:53.307Z,98840.88
2023-04-12T05:46:59.224Z,98844.54
2023-04-12T05:57:05.184Z,98841.82
2023-04-12T06:07:11.185Z,98844.14
2023-04-12T06:17:16.949Z,98844.21
2023-04-12T06:27:22.795Z,98854.44
2023-04-12T06:37:28.509Z,98852.52
2023-04-12T06:47:34.902Z,98848.61
2023-04-12T06:57:42.641Z,98845.52
2023-04-12T07:07:49.232Z,98846.52
2023-04-12T07:17:54.856Z,98847.63
2023-04-12T07:28:00.618Z,98842.58
2023-04-12T07:38:06.287Z,98838.98
2023-04-12T07:48:12.431Z,98832.35
2023-04-12T07:58:18.909Z,98837.38
2023-04-12T08:08:24.850Z,98839.80
2023-04-12T08:18:31.378Z,98838.13
2023-04-12T08:28:39.416Z,98838.64
2023-04-12T08:38:46.385Z,98834.73
2023-04-12T08:48:55.143Z,98836.22
2023-04-12T08:59:01.967Z,98839.64
2023-04-12T09:09:08.300Z,98841.73
2023-04-12T09:19:14.195Z,98824.37
2023-04-12T09:29:26.883Z,98821.27
2023-04-12T09:39:37.139Z,98817.18
2023-04-12T09:49:46.078Z,98815.00
2023-04-12T09:59:54.144Z,98807.08
2023-04-12T10:10:02.041Z,98804.83
2023-04-12T10:20:10.345Z,98810.52
2023-04-12T10:30:31.265Z,98808.34
2023-04-12T10:40:38.624Z,98800.29
2023-04-12T10:50:45.354Z,98798.91
2023-04-12T11:01:13.380Z,98794.27
2023-04-12T11:11:23.296Z,98788.37
2023-04-12T11:21:29.586Z,98781.22
2023-04-12T11:31:36.138Z,98769.17
2023-04-12T11:41:47.277Z,98763.30
2023-04-12T11:52:04.810Z,98759.77
2023-04-12T12:02:22.852Z,98754.10
2023-04-12T12:12:30.612Z,98744.83
2023-04-12T12:22:37.175Z,98735.21
2023-04-12T12:32:43.409Z,98722.85
2023-04-12T12:42:52.077Z,98703.45
2023-04-12T12:52:59.412Z,98685.39
2023-04-12T13:03:05.825Z,98682.25
2023-04-12T13:13:12.384Z,98670.70
2023-04-12T13:23:18.662Z,98666.95
2023-04-12T13:33:24.781Z,98654.18
2023-04-12T13:43:31.081Z,98646.84
2023-04-12T13:53:37.674Z,98639.49
2023-04-12T14:03:44.064Z,98633.02
2023-04-12T14:13:50.362Z,98622.02
2023-04-12T14:23:56.806Z,98626.54
2023-04-12T14:34:03.272Z,98629.65
2023-04-12T14:44:09.487Z,98622.75
2023-04-12T14:54:15.685Z,98617.55
2023-04-12T15:04:22.189Z,98618.02
2023-04-12T15:14:28.894Z,98610.33
2023-04-12T15:24:35.044Z,98598.20
2023-04-12T15:34:41.155Z,98593.45
2023-04-12T15:44:47.470Z,98590.44
2023-04-12T15:54:54.025Z,98590.85
2023-04-12T16:05:00.885Z,98581.29
2023-04-12T16:15:08.564Z,98577.98
2023-04-12T16:25:14.982Z,98576.27
2023-04-12T16:35:21.521Z,98578.48
2023-04-12T16:45:28.164Z,98575.92
2023-04-12T16:55:34.646Z,98570.02
2023-04-12T17:05:41.264Z,98570.40
2023-04-12T17:15:49.160Z,98563.77
2023-04-12T17:25:56.350Z,98554.77
2023-04-12T17:36:04.256Z,98561.98
2023-04-12T17:46:10.958Z,98568.58
2023-04-12T17:56:17.249Z,98576.92
2023-04-12T18:06:24.188Z,98583.45
2023-04-12T18:16:30.497Z,98583.70
2023-04-12T18:26:36.816Z,98585.61
2023-04-12T18:36:43.221Z,98579.90
2023-04-12T18:46:49.589Z,98572.98
2023-04-12T18:56:57.979Z,98565.27
2023-04-12T19:07:04.114Z,98561.20
2023-04-12T19:17:10.852Z,98559.20
2023-04-12T19:27:17.463Z,98554.79
2023-04-12T19:37:24.874Z,98551.85
2023-04-12T19:47:30.683Z,98552.40
2023-04-12T19:57:38.120Z,98550.29
2023-04-12T20:07:44.412Z,98543.62
2023-04-12T20:17:52.067Z,98534.45
2023-04-12T20:27:58.969Z,98530.91
2023-04-12T20:38:05.431Z,98526.55
2023-04-12T20:48:11.716Z,98517.63
2023-04-12T20:58:19.225Z,98514.73
2023-04-12T21:08:25.363Z,98518.96
2023-04-12T21:18:34.241Z,98531.48
2023-04-12T21:28:40.650Z,98539.27
2023-04-12T21:38:46.441Z,98540.30
2023-04-12T21:48:52.838Z,98528.15
2023-04-12T21:59:00.141Z,98512.14
2023-04-12T22:09:06.079Z,98498.05
2023-04-12T22:19:12.879Z,98496.48
2023-04-12T22:29:18.767Z,98489.95
2023-04-12T22:39:24.616Z,98482.42
2023-04-12T22:49:30.559Z,98474.04
2023-04-12T22:59:36.435Z,98456.04
2023-04-12T23:09:42.561Z,98444.63
2023-04-12T23:19:50.467Z,98428.64
2023-04-12T23:29:56.156Z,98425.80
2023-04-12T23:40:06.935Z,98416.07
2023-04-12T23:50:13.530Z,98413.72
